createdAt,value
2023-02-17T00:00:04.961Z,98806.81
2023-02-17T00:03:13.505Z,98810.00
2023-02-17T00:06:21.969Z,98811.50
2023-02-17T00:09:30.951Z,98812.31
2023-02-17T00:12:36.515Z,98808.13
2023-02-17T00:15:43.094Z,98806.41
2023-02-17T00:18:49.318Z,98806.34
2023-02-17T00:21:58.415Z,98751.69
2023-02-17T00:25:07.093Z,98804.34
2023-02-17T00:28:13.434Z,98814.47
2023-02-17T00:31:24.308Z,98808.22
2023-02-17T00:34:30.972Z,98796.06
2023-02-17T00:37:38.712Z,98792.44
2023-02-17T00:40:48.013Z,98794.03
2023-02-17T00:43:53.433Z,98787.06
2023-02-17T00:47:01.500Z,98797.31
2023-02-17T00:50:07.480Z,98788.75
2023-02-17T00:53:13.670Z,98793.94
2023-02-17T00:56:22.240Z,98793.09
2023-02-17T00:59:28.460Z,98786.94
2023-02-17T01:02:33.853Z,98781.59
2023-02-17T01:05:45.421Z,98773.88
2023-02-17T01:08:53.257Z,98766.88
2023-02-17T01:12:02.827Z,98762.41
2023-02-17T01:15:12.035Z,98764.13
2023-02-17T01:18:20.757Z,98769.41
2023-02-17T01:21:31.903Z,98771.28
2023-02-17T01:24:38.498Z,98762.69
2023-02-17T01:27:47.302Z,98765.50
2023-02-17T01:30:53.857Z,98759.56
2023-02-17T01:34:02.893Z,98764.91
2023-02-17T01:37:09.463Z,98762.31
2023-02-17T01:40:17.138Z,98760.72
2023-02-17T01:43:26.331Z,98763.59
2023-02-17T01:46:31.767Z,98760.38
2023-02-17T01:49:44.423Z,98753.75
2023-02-17T01:52:58.145Z,98746.50
2023-02-17T01:56:07.039Z,98760.41
2023-02-17T01:59:23.870Z,98759.00
2023-02-17T02:02:32.268Z,98754.75
2023-02-17T02:05:38.707Z,98754.03
2023-02-17T02:08:57.949Z,98752.38
2023-02-17T02:12:03.378Z,98715.78
2023-02-17T02:15:27.044Z,98740.56
2023-02-17T02:18:57.863Z,98745.56
2023-02-17T02:22:40.345Z,98742.09
2023-02-17T02:26:35.912Z,98749.81
2023-02-17T02:30:34.971Z,98732.38
2023-02-17T02:33:53.987Z,98727.84
2023-02-17T02:37:12.254Z,98726.94
2023-02-17T02:40:26.721Z,98726.88
2023-02-17T02:43:35.466Z,98721.94
2023-02-17T02:46:40.995Z,98722.53
2023-02-17T02:49:50.287Z,98721.69
2023-02-17T02:53:23.339Z,98711.09
2023-02-17T02:56:52.041Z,98714.22
2023-02-17T03:00:17.432Z,98717.63
2023-02-17T03:03:37.706Z,98704.47
2023-02-17T03:06:56.948Z,98704.28
2023-02-17T03:10:04.245Z,98714.59
2023-02-17T03:13:10.022Z,98701.69
2023-02-17T03:16:17.244Z,98696.72
2023-02-17T03:19:27.763Z,98700.13
2023-02-17T03:22:43.526Z,98692.22
2023-02-17T03:25:49.243Z,98696.63
2023-02-17T03:28:56.035Z,98687.84
2023-02-17T03:32:02.069Z,98690.25
2023-02-17T03:35:09.657Z,98690.06
2023-02-17T03:38:17.955Z,98688.31
2023-02-17T03:41:24.304Z,98686.31
2023-02-17T03:44:29.878Z,98691.25
2023-02-17T03:47:36.172Z,98694.56
2023-02-17T03:50:41.613Z,98692.59
2023-02-17T03:53:52.149Z,98682.94
2023-02-17T03:56:59.521Z,98685.28
2023-02-17T04:00:07.172Z,98677.38
2023-02-17T04:03:18.238Z,98684.84
2023-02-17T04:06:25.252Z,98683.72
2023-02-17T04:09:33.747Z,98677.31
2023-02-17T04:12:40.771Z,98671.78
2023-02-17T04:15:46.120Z,98681.09
2023-02-17T04:18:52.451Z,98677.56
2023-02-17T04:21:57.876Z,98672.19
2023-02-17T04:25:07.036Z,98667.16
2023-02-17T04:28:13.026Z,98677.19
2023-02-17T04:31:19.496Z,98684.00
2023-02-17T04:34:24.995Z,98674.19
2023-02-17T04:37:31.272Z,98660.06
2023-02-17T04:40:39.791Z,98674.28
2023-02-17T04:43:46.100Z,98671.38
2023-02-17T04:46:51.469Z,98647.16
2023-02-17T04:49:58.413Z,98649.34
2023-02-17T04:53:03.860Z,98666.34
2023-02-17T04:56:13.187Z,98655.84
2023-02-17T04:59:18.629Z,98655.75
2023-02-17T05:02:27.003Z,98651.25
2023-02-17T05:05:32.716Z,98643.50
2023-02-17T05:08:39.000Z,98638.19
2023-02-17T05:11:47.249Z,98637.06
2023-02-17T05:14:53.503Z,98625.63
2023-02-17T05:17:58.965Z,98627.31
2023-02-17T05:21:05.368Z,98628.88
2023-02-17T05:24:11.317Z,98618.25
2023-02-17T05:27:20.699Z,98616.44
2023-02-17T05:30:26.678Z,98613.22
2023-02-17T05:33:33.569Z,98617.31
2023-02-17T05:36:38.965Z,98626.19
2023-02-17T05:39:45.384Z,98632.53
2023-02-17T05:42:53.595Z,98628.19
2023-02-17T05:45:59.905Z,98627.31
2023-02-17T05:49:05.371Z,98640.94
2023-02-17T05:52:11.767Z,98628.69
2023-02-17T05:55:17.654Z,98628.50
2023-02-17T05:58:27.619Z,98619.72
2023-02-17T06:01:34.000Z,98612.47
2023-02-17T06:04:41.715Z,98603.75
2023-02-17T06:07:50.562Z,98611.19
2023-02-17T06:10:57.758Z,98607.50
2023-02-17T06:14:06.576Z,98590.38
2023-02-17T06:17:13.097Z,98606.34
2023-02-17T06:20:19.590Z,98599.41
2023-02-17T06:23:26.467Z,98594.88
2023-02-17T06:26:32.152Z,98597.47
2023-02-17T06:29:41.520Z,98597.63
2023-02-17T06:32:47.290Z,98598.34
2023-02-17T06:35:54.848Z,98597.63
2023-02-17T06:39:00.230Z,98581.31
2023-02-17T06:42:07.186Z,98373.28
2023-02-17T06:45:19.633Z,98600.22
2023-02-17T06:48:26.202Z,98581.06
2023-02-17T06:51:31.885Z,98575.50
2023-02-17T06:54:38.253Z,98582.81
2023-02-17T06:57:43.660Z,98587.97
2023-02-17T07:00:52.934Z,98573.72
2023-02-17T07:04:00.133Z,98560.84
2023-02-17T07:07:06.687Z,98577.91
2023-02-17T07:10:14.317Z,98580.97
2023-02-17T07:13:20.644Z,98594.56
2023-02-17T07:16:29.054Z,98576.22
2023-02-17T07:19:35.746Z,98596.63
2023-02-17T07:22:41.773Z,98600.72
2023-02-17T07:25:48.159Z,98587.41
2023-02-17T07:28:53.540Z,98586.97
2023-02-17T07:32:02.677Z,98581.75
2023-02-17T07:35:08.775Z,98580.94
2023-02-17T07:38:16.005Z,98585.78
2023-02-17T07:41:25.290Z,98584.75
2023-02-17T07:44:32.147Z,98563.22
2023-02-17T07:47:40.357Z,98581.25
2023-02-17T07:50:46.614Z,98585.41
2023-02-17T07:53:55.208Z,98567.75
2023-02-17T07:57:01.607Z,98566.63
2023-02-17T08:00:10.835Z,98551.69
2023-02-17T08:03:23.001Z,98559.44
2023-02-17T08:06:29.754Z,98558.88
2023-02-17T08:09:51.963Z,98557.75
2023-02-17T08:13:13.044Z,98554.88
2023-02-17T08:16:19.683Z,98557.03
2023-02-17T08:19:39.621Z,98559.47
2023-02-17T08:22:53.186Z,98559.16
2023-02-17T08:26:00.848Z,98546.03
2023-02-17T08:29:07.669Z,98555.41
2023-02-17T08:32:13.741Z,98554.38
2023-02-17T08:35:23.279Z,98558.03
2023-02-17T08:38:29.089Z,98558.03
2023-02-17T08:41:40.070Z,98564.84
2023-02-17T08:44:45.732Z,98559.59
2023-02-17T08:47:51.989Z,98561.06
2023-02-17T08:51:00.133Z,98549.13
2023-02-17T08:54:10.528Z,98554.19
2023-02-17T08:57:16.060Z,98549.53
2023-02-17T09:00:23.084Z,98536.22
2023-02-17T09:03:29.477Z,98544.56
2023-02-17T09:06:42.482Z,98549.78
2023-02-17T09:09:48.284Z,98550.06
2023-02-17T09:13:01.999Z,98558.72
2023-02-17T09:16:08.428Z,98547.25
2023-02-17T09:19:15.565Z,98548.53
2023-02-17T09:22:32.120Z,98546.56
2023-02-17T09:25:38.893Z,98482.56
2023-02-17T09:28:45.779Z,98536.47
2023-02-17T09:31:52.080Z,98532.94
2023-02-17T09:34:59.107Z,98517.69
2023-02-17T09:38:10.485Z,98518.63
2023-02-17T09:41:24.348Z,98519.44
2023-02-17T09:44:45.259Z,98540.06
2023-02-17T09:47:56.283Z,98513.91
2023-02-17T09:51:13.302Z,98517.13
2023-02-17T09:54:31.541Z,98524.13
2023-02-17T09:57:47.243Z,98528.34
2023-02-17T10:01:00.025Z,98522.19
2023-02-17T10:04:18.357Z,98525.66
2023-02-17T10:07:34.351Z,98518.03
2023-02-17T10:10:57.204Z,98529.84
2023-02-17T10:14:17.104Z,98522.72
2023-02-17T10:17:37.929Z,98509.44
2023-02-17T10:20:52.424Z,98514.09
2023-02-17T10:24:02.211Z,98279.66
2023-02-17T10:27:37.563Z,98504.31
2023-02-17T10:31:05.231Z,98511.69
2023-02-17T10:34:29.264Z,98501.81
2023-02-17T10:37:50.409Z,98502.66
2023-02-17T10:40:59.574Z,98482.16
2023-02-17T10:44:17.543Z,98480.97
2023-02-17T10:47:25.598Z,98476.81
2023-02-17T10:50:33.370Z,98468.94
2023-02-17T10:53:44.113Z,98458.31
2023-02-17T10:56:58.074Z,98449.47
2023-02-17T11:00:09.410Z,98445.50
2023-02-17T11:03:24.049Z,98443.34
2023-02-17T11:06:29.616Z,98419.75
2023-02-17T11:09:37.937Z,98410.81
2023-02-17T11:12:45.933Z,98394.66
2023-02-17T11:15:55.070Z,98393.91
2023-02-17T11:19:00.681Z,98390.66
2023-02-17T11:22:29.043Z,98397.88
2023-02-17T11:25:39.060Z,98387.03
2023-02-17T11:28:45.321Z,98371.22
2023-02-17T11:32:05.076Z,98367.00
2023-02-17T11:35:28.072Z,98374.78
2023-02-17T11:38:48.092Z,98362.63
2023-02-17T11:41:54.618Z,98368.25
2023-02-17T11:45:03.303Z,98360.09
2023-02-17T11:48:55.656Z,98370.66
2023-02-17T11:52:24.829Z,98364.56
2023-02-17T11:55:47.521Z,98354.25
2023-02-17T11:59:32.832Z,98353.25
2023-02-17T12:03:06.036Z,98345.84
2023-02-17T12:06:24.413Z,98353.09
2023-02-17T12:09:45.516Z,98346.22
2023-02-17T12:13:24.624Z,98091.88
2023-02-17T12:16:51.426Z,98331.38
2023-02-17T12:20:18.247Z,98305.84
2023-02-17T12:24:06.983Z,98337.16
2023-02-17T12:27:36.610Z,98338.50
2023-02-17T12:31:05.585Z,98341.38
2023-02-17T12:34:28.577Z,98329.22
2023-02-17T12:37:49.110Z,98320.34
2023-02-17T12:41:09.731Z,98306.00
2023-02-17T12:44:24.108Z,98314.66
2023-02-17T12:47:42.228Z,98309.78
2023-02-17T12:51:03.756Z,98312.94
2023-02-17T12:54:23.567Z,98295.38
2023-02-17T12:57:53.524Z,98256.31
2023-02-17T13:01:13.642Z,98281.94
2023-02-17T13:04:26.472Z,98284.72
2023-02-17T13:07:51.426Z,98269.72
2023-02-17T13:11:07.535Z,98271.16
2023-02-17T13:14:31.923Z,98260.84
2023-02-17T13:17:54.985Z,98251.22
2023-02-17T13:21:04.990Z,98246.81
2023-02-17T13:24:33.731Z,98239.75
2023-02-17T13:27:42.858Z,98230.09
2023-02-17T13:30:54.300Z,98221.84
2023-02-17T13:34:02.722Z,98219.31
2023-02-17T13:37:28.459Z,98198.53
2023-02-17T13:40:43.617Z,98200.06
2023-02-17T13:43:50.123Z,98194.44
2023-02-17T13:47:05.419Z,98202.13
2023-02-17T13:50:35.591Z,98189.50
2023-02-17T13:53:44.022Z,98168.47
2023-02-17T13:56:56.422Z,98177.69
2023-02-17T14:00:24.421Z,98178.44
2023-02-17T14:03:44.228Z,98167.97
2023-02-17T14:06:51.148Z,98175.13
2023-02-17T14:09:58.618Z,98175.09
2023-02-17T14:13:04.378Z,98174.06
2023-02-17T14:16:28.971Z,98166.09
2023-02-17T14:19:50.792Z,98159.69
2023-02-17T14:23:06.935Z,98153.59
2023-02-17T14:26:28.953Z,98141.72
2023-02-17T14:29:46.025Z,98146.84
2023-02-17T14:32:51.495Z,98157.16
2023-02-17T14:36:08.233Z,98146.53
2023-02-17T14:39:18.665Z,98136.06
2023-02-17T14:42:24.982Z,98136.53
2023-02-17T14:45:30.455Z,98112.72
2023-02-17T14:48:36.887Z,98110.63
2023-02-17T14:51:45.053Z,98115.88
2023-02-17T14:54:52.169Z,98107.44
2023-02-17T14:57:58.190Z,98105.09
2023-02-17T15:01:05.948Z,98109.91
2023-02-17T15:04:11.357Z,98099.94
2023-02-17T15:07:22.506Z,98099.50
2023-02-17T15:10:32.055Z,98091.22
2023-02-17T15:13:38.456Z,98089.13
2023-02-17T15:16:44.304Z,98079.84
2023-02-17T15:19:50.568Z,98079.09
2023-02-17T15:23:02.025Z,98080.97
2023-02-17T15:26:12.596Z,98061.44
2023-02-17T15:29:21.090Z,98051.50
2023-02-17T15:32:27.710Z,98046.44
2023-02-17T15:35:33.463Z,98038.75
2023-02-17T15:38:42.630Z,98049.81
2023-02-17T15:41:50.480Z,98005.13
2023-02-17T15:44:56.833Z,98022.16
2023-02-17T15:48:09.502Z,98021.44
2023-02-17T15:51:19.526Z,97924.16
2023-02-17T15:54:27.765Z,98006.13
2023-02-17T15:57:34.101Z,98005.41
2023-02-17T16:00:39.813Z,98009.53
2023-02-17T16:03:46.333Z,97990.13
2023-02-17T16:06:52.054Z,97999.66
2023-02-17T16:10:01.285Z,97991.44
2023-02-17T16:13:08.431Z,97988.31
2023-02-17T16:16:22.187Z,97996.75
2023-02-17T16:19:28.632Z,98001.03
2023-02-17T16:22:34.913Z,97986.13
2023-02-17T16:25:47.886Z,97988.31
2023-02-17T16:28:54.680Z,97964.94
2023-02-17T16:32:00.245Z,97964.03
2023-02-17T16:35:06.646Z,97962.06
2023-02-17T16:38:22.699Z,97939.16
2023-02-17T16:41:32.205Z,97946.16
2023-02-17T16:44:38.070Z,97935.06
2023-02-17T16:47:47.249Z,97933.19
2023-02-17T16:50:52.726Z,97937.03
2023-02-17T16:53:59.499Z,97922.53
2023-02-17T16:57:08.179Z,97930.22
2023-02-17T17:00:17.146Z,97925.75
2023-02-17T17:03:24.173Z,97909.84
2023-02-17T17:06:33.153Z,97916.84
2023-02-17T17:09:38.537Z,97891.50
2023-02-17T17:12:49.382Z,97842.28
2023-02-17T17:15:56.656Z,97893.09
2023-02-17T17:19:04.176Z,97892.19
2023-02-17T17:22:09.590Z,97858.22
2023-02-17T17:25:16.392Z,97875.06
2023-02-17T17:28:24.932Z,97884.03
2023-02-17T17:31:32.273Z,97883.84
2023-02-17T17:34:37.693Z,97890.19
2023-02-17T17:37:44.430Z,97888.16
2023-02-17T17:40:53.592Z,97885.06
2023-02-17T17:44:02.857Z,97889.75
2023-02-17T17:47:09.232Z,97879.03
2023-02-17T17:50:23.423Z,97911.72
2023-02-17T17:53:28.959Z,97895.16
2023-02-17T17:56:39.526Z,97912.28
2023-02-17T17:59:47.983Z,97887.38
2023-02-17T18:02:54.276Z,97892.28
2023-02-17T18:05:59.971Z,97897.28
2023-02-17T18:09:10.827Z,97863.59
2023-02-17T18:12:23.775Z,97879.69
2023-02-17T18:15:32.970Z,97886.25
2023-02-17T18:18:40.603Z,97890.16
2023-02-17T18:21:47.951Z,97869.13
2023-02-17T18:24:53.502Z,97887.53
2023-02-17T18:27:59.808Z,97875.19
2023-02-17T18:31:15.484Z,97865.09
2023-02-17T18:34:21.988Z,97870.78
2023-02-17T18:37:27.601Z,97884.09
2023-02-17T18:40:34.490Z,97883.97
2023-02-17T18:43:39.870Z,97895.59
2023-02-17T18:46:48.923Z,97882.13
2023-02-17T18:49:54.964Z,97890.81
2023-02-17T18:53:03.062Z,97881.75
2023-02-17T18:56:15.628Z,97899.72
2023-02-17T18:59:22.140Z,97889.59
2023-02-17T19:02:30.458Z,97896.38
2023-02-17T19:05:36.857Z,97891.06
2023-02-17T19:08:42.559Z,97902.56
2023-02-17T19:11:48.860Z,97898.63
2023-02-17T19:14:56.160Z,97896.94
2023-02-17T19:18:05.373Z,97911.91
2023-02-17T19:21:12.721Z,97899.75
2023-02-17T19:24:19.695Z,97905.53
2023-02-17T19:27:25.847Z,97903.88
2023-02-17T19:30:32.447Z,97907.97
2023-02-17T19:33:40.930Z,97887.88
2023-02-17T19:36:47.268Z,97891.97
2023-02-17T19:39:52.800Z,97887.16
2023-02-17T19:42:59.137Z,97888.84
2023-02-17T19:46:05.362Z,97904.34
2023-02-17T19:49:17.538Z,97914.44
2023-02-17T19:52:23.082Z,97908.63
2023-02-17T19:55:30.287Z,97896.13
2023-02-17T19:58:39.666Z,97881.44
2023-02-17T20:01:46.317Z,97892.00
2023-02-17T20:04:54.544Z,97894.81
2023-02-17T20:08:00.882Z,97891.09
2023-02-17T20:11:09.452Z,97896.97
2023-02-17T20:14:15.809Z,97892.88
2023-02-17T20:17:21.701Z,97875.38
2023-02-17T20:20:31.100Z,97875.59
2023-02-17T20:23:38.196Z,97879.13
2023-02-17T20:26:47.705Z,97855.84
2023-02-17T20:29:53.240Z,97868.47
2023-02-17T20:32:59.548Z,97876.25
2023-02-17T20:36:11.194Z,97852.41
2023-02-17T20:39:17.661Z,97864.31
2023-02-17T20:42:23.235Z,97863.91
2023-02-17T20:45:30.320Z,97862.63
2023-02-17T20:48:35.905Z,97847.84
2023-02-17T20:51:45.099Z,97852.22
2023-02-17T20:54:50.982Z,97845.28
2023-02-17T20:57:58.147Z,97852.94
2023-02-17T21:01:03.551Z,97846.94
2023-02-17T21:04:10.696Z,97856.31
2023-02-17T21:07:19.165Z,97849.53
2023-02-17T21:10:30.692Z,97842.59
2023-02-17T21:13:36.514Z,97831.19
2023-02-17T21:16:42.970Z,97840.13
2023-02-17T21:19:48.640Z,97826.66
2023-02-17T21:22:57.953Z,97843.28
2023-02-17T21:26:03.449Z,97863.81
2023-02-17T21:29:10.047Z,97855.75
2023-02-17T21:32:15.509Z,97852.56
2023-02-17T21:35:22.047Z,97856.31
2023-02-17T21:38:30.303Z,97861.16
2023-02-17T21:41:36.616Z,97827.78
2023-02-17T21:44:55.221Z,97837.56
2023-02-17T21:48:01.720Z,97844.47
2023-02-17T21:51:10.552Z,97837.44
2023-02-17T21:54:19.774Z,97823.22
2023-02-17T21:57:25.237Z,97832.44
2023-02-17T22:00:31.559Z,97845.25
2023-02-17T22:03:37.673Z,97874.25
2023-02-17T22:06:45.613Z,97856.97
2023-02-17T22:09:54.127Z,97879.97
2023-02-17T22:13:00.362Z,97891.63
2023-02-17T22:16:06.279Z,97893.31
2023-02-17T22:19:19.185Z,97905.09
2023-02-17T22:22:24.629Z,97906.97
2023-02-17T22:25:34.247Z,97902.84
2023-02-17T22:28:40.104Z,97892.91
2023-02-17T22:31:46.594Z,97893.50
2023-02-17T22:34:52.155Z,97894.22
2023-02-17T22:37:59.890Z,97873.31
2023-02-17T22:41:15.391Z,97885.66
2023-02-17T22:44:22.391Z,97878.28
2023-02-17T22:47:27.776Z,97894.00
2023-02-17T22:50:34.095Z,97902.69
2023-02-17T22:53:41.243Z,97900.09
2023-02-17T22:56:50.311Z,97896.44
2023-02-17T22:59:55.807Z,97896.94
2023-02-17T23:03:02.288Z,97897.56
2023-02-17T23:06:13.339Z,97892.25
2023-02-17T23:09:22.901Z,97901.34
2023-02-17T23:12:31.341Z,97902.13
2023-02-17T23:15:43.717Z,97899.50
2023-02-17T23:18:49.168Z,97891.41
2023-02-17T23:22:00.034Z,97891.41
2023-02-17T23:25:05.500Z,97885.53
2023-02-17T23:28:14.730Z,97867.03
2023-02-17T23:31:20.272Z,97877.97
2023-02-17T23:34:26.680Z,97881.72
2023-02-17T23:37:32.120Z,97889.56
2023-02-17T23:40:39.228Z,97893.28
2023-02-17T23:43:47.517Z,97881.63
2023-02-17T23:46:53.863Z,97873.28
2023-02-17T23:49:59.741Z,97857.34
2023-02-17T23:53:06.108Z,97852.94
2023-02-17T23:56:17.599Z,97858.19
2023-02-17T23:59:26.879Z,97865.22
